sensor_id;sensor_type;location;lat;lon;timestamp;temperature;humidity
1107;DHT22;540;49.448;8.612;2023-06-04T00:00:17;18.70;37.30
1107;DHT22;540;49.448;8.612;2023-06-04T00:02:45;19.30;36.90
1107;DHT22;540;49.448;8.612;2023-06-04T00:05:13;18.90;37.30
1107;DHT22;540;49.448;8.612;2023-06-04T00:07:41;18.60;37.70
1107;DHT22;540;49.448;8.612;2023-06-04T00:10:10;19.30;37.50
1107;DHT22;540;49.448;8.612;2023-06-04T00:12:38;18.80;36.80
1107;DHT22;540;49.448;8.612;2023-06-04T00:15:07;19.00;37.90
1107;DHT22;540;49.448;8.612;2023-06-04T00:17:35;18.90;38.30
1107;DHT22;540;49.448;8.612;2023-06-04T00:20:03;18.40;37.20
1107;DHT22;540;49.448;8.612;2023-06-04T00:22:31;18.90;37.40
1107;DHT22;540;49.448;8.612;2023-06-04T00:24:59;19.00;37.70
1107;DHT22;540;49.448;8.612;2023-06-04T00:27:28;18.60;37.90
1107;DHT22;540;49.448;8.612;2023-06-04T00:29:56;19.00;38.30
1107;DHT22;540;49.448;8.612;2023-06-04T00:32:24;18.50;37.80
1107;DHT22;540;49.448;8.612;2023-06-04T00:34:54;18.70;37.40
1107;DHT22;540;49.448;8.612;2023-06-04T00:37:24;18.90;37.80
1107;DHT22;540;49.448;8.612;2023-06-04T00:39:52;18.80;37.10
1107;DHT22;540;49.448;8.612;2023-06-04T00:42:20;18.90;37.60
1107;DHT22;540;49.448;8.612;2023-06-04T00:44:49;18.90;37.90
1107;DHT22;540;49.448;8.612;2023-06-04T00:47:19;18.80;37.70
1107;DHT22;540;49.448;8.612;2023-06-04T00:49:48;18.70;37.90
1107;DHT22;540;49.448;8.612;2023-06-04T00:52:16;18.90;38.80
1107;DHT22;540;49.448;8.612;2023-06-04T00:54:44;18.90;39.40
1107;DHT22;540;49.448;8.612;2023-06-04T00:57:11;18.70;39.30
1107;DHT22;540;49.448;8.612;2023-06-04T00:59:39;18.50;38.10
1107;DHT22;540;49.448;8.612;2023-06-04T01:02:13;18.80;36.90
1107;DHT22;540;49.448;8.612;2023-06-04T01:04:45;18.90;37.00
1107;DHT22;540;49.448;8.612;2023-06-04T01:07:14;18.30;36.70
1107;DHT22;540;49.448;8.612;2023-06-04T01:09:44;18.70;37.10
1107;DHT22;540;49.448;8.612;2023-06-04T01:12:12;18.50;37.10
1107;DHT22;540;49.448;8.612;2023-06-04T01:14:40;18.50;37.10
1107;DHT22;540;49.448;8.612;2023-06-04T01:17:13;18.80;37.30
1107;DHT22;540;49.448;8.612;2023-06-04T01:20:06;18.80;37.30
1107;DHT22;540;49.448;8.612;2023-06-04T01:22:43;18.50;36.90
1107;DHT22;540;49.448;8.612;2023-06-04T01:25:14;18.50;37.60
1107;DHT22;540;49.448;8.612;2023-06-04T01:27:48;18.00;38.10
1107;DHT22;540;49.448;8.612;2023-06-04T01:30:21;18.50;38.90
1107;DHT22;540;49.448;8.612;2023-06-04T01:32:52;18.20;39.10
1107;DHT22;540;49.448;8.612;2023-06-04T01:35:21;18.20;39.00
1107;DHT22;540;49.448;8.612;2023-06-04T01:37:50;18.00;38.40
1107;DHT22;540;49.448;8.612;2023-06-04T01:40:19;18.40;38.60
1107;DHT22;540;49.448;8.612;2023-06-04T01:42:47;18.40;38.60
1107;DHT22;540;49.448;8.612;2023-06-04T01:45:14;18.30;38.40
1107;DHT22;540;49.448;8.612;2023-06-04T01:47:42;18.30;38.60
1107;DHT22;540;49.448;8.612;2023-06-04T01:50:11;18.40;38.90
1107;DHT22;540;49.448;8.612;2023-06-04T01:52:40;18.00;38.50
1107;DHT22;540;49.448;8.612;2023-06-04T01:55:10;18.10;38.20
1107;DHT22;540;49.448;8.612;2023-06-04T01:57:39;18.30;38.20
1107;DHT22;540;49.448;8.612;2023-06-04T02:00:09;18.00;37.70
1107;DHT22;540;49.448;8.612;2023-06-04T02:02:39;18.50;38.30
1107;DHT22;540;49.448;8.612;2023-06-04T02:05:09;17.90;38.60
1107;DHT22;540;49.448;8.612;2023-06-04T02:07:40;18.20;39.10
1107;DHT22;540;49.448;8.612;2023-06-04T02:10:09;17.70;38.50
1107;DHT22;540;49.448;8.612;2023-06-04T02:12:38;18.20;38.80
1107;DHT22;540;49.448;8.612;2023-06-04T02:15:09;18.10;38.50
1107;DHT22;540;49.448;8.612;2023-06-04T02:17:37;18.30;38.80
1107;DHT22;540;49.448;8.612;2023-06-04T02:20:07;18.20;38.90
1107;DHT22;540;49.448;8.612;2023-06-04T02:22:38;18.10;38.80
1107;DHT22;540;49.448;8.612;2023-06-04T02:25:06;18.10;38.70
1107;DHT22;540;49.448;8.612;2023-06-04T02:27:35;17.90;38.70
1107;DHT22;540;49.448;8.612;2023-06-04T02:30:04;17.80;39.00
1107;DHT22;540;49.448;8.612;2023-06-04T02:32:33;18.20;40.40
1107;DHT22;540;49.448;8.612;2023-06-04T02:35:03;17.90;40.80
1107;DHT22;540;49.448;8.612;2023-06-04T02:37:30;17.80;41.00
1107;DHT22;540;49.448;8.612;2023-06-04T02:40:00;17.70;41.00
1107;DHT22;540;49.448;8.612;2023-06-04T02:42:27;17.50;41.00
1107;DHT22;540;49.448;8.612;2023-06-04T02:44:55;17.60;41.30
1107;DHT22;540;49.448;8.612;2023-06-04T02:47:23;17.80;41.60
1107;DHT22;540;49.448;8.612;2023-06-04T02:49:51;17.60;41.40
1107;DHT22;540;49.448;8.612;2023-06-04T02:52:19;17.60;41.40
1107;DHT22;540;49.448;8.612;2023-06-04T02:54:49;17.70;41.70
1107;DHT22;540;49.448;8.612;2023-06-04T02:57:18;17.60;41.80
1107;DHT22;540;49.448;8.612;2023-06-04T02:59:46;17.60;41.90
1107;DHT22;540;49.448;8.612;2023-06-04T03:02:14;17.30;41.90
1107;DHT22;540;49.448;8.612;2023-06-04T03:04:42;17.40;42.20
1107;DHT22;540;49.448;8.612;2023-06-04T03:07:11;17.50;42.50
1107;DHT22;540;49.448;8.612;2023-06-04T03:09:40;17.20;42.60
1107;DHT22;540;49.448;8.612;2023-06-04T03:12:08;17.60;43.20
1107;DHT22;540;49.448;8.612;2023-06-04T03:14:38;17.30;43.60
1107;DHT22;540;49.448;8.612;2023-06-04T03:17:06;17.10;44.30
1107;DHT22;540;49.448;8.612;2023-06-04T03:19:37;16.90;44.60
1107;DHT22;540;49.448;8.612;2023-06-04T03:22:08;16.90;44.80
1107;DHT22;540;49.448;8.612;2023-06-04T03:24:37;17.00;44.80
1107;DHT22;540;49.448;8.612;2023-06-04T03:27:06;16.80;44.30
1107;DHT22;540;49.448;8.612;2023-06-04T03:29:35;17.30;44.40
1107;DHT22;540;49.448;8.612;2023-06-04T03:32:05;17.00;44.20
1107;DHT22;540;49.448;8.612;2023-06-04T03:34:33;17.10;44.50
1107;DHT22;540;49.448;8.612;2023-06-04T03:37:01;17.30;44.80
1107;DHT22;540;49.448;8.612;2023-06-04T03:39:29;16.70;44.50
1107;DHT22;540;49.448;8.612;2023-06-04T03:41:57;16.90;44.70
1107;DHT22;540;49.448;8.612;2023-06-04T03:44:25;16.80;44.50
1107;DHT22;540;49.448;8.612;2023-06-04T03:46:53;16.80;44.30
1107;DHT22;540;49.448;8.612;2023-06-04T03:49:22;16.90;44.30
1107;DHT22;540;49.448;8.612;2023-06-04T03:51:50;17.30;44.40
1107;DHT22;540;49.448;8.612;2023-06-04T03:54:18;17.30;44.20
1107;DHT22;540;49.448;8.612;2023-06-04T03:56:46;17.20;44.30
1107;DHT22;540;49.448;8.612;2023-06-04T03:59:14;16.70;44.40
1107;DHT22;540;49.448;8.612;2023-06-04T04:01:42;17.00;44.80
1107;DHT22;540;49.448;8.612;2023-06-04T04:04:10;16.70;44.60
1107;DHT22;540;49.448;8.612;2023-06-04T04:06:39;17.20;45.10
1107;DHT22;540;49.448;8.612;2023-06-04T04:09:08;17.30;45.10
1107;DHT22;540;49.448;8.612;2023-06-04T04:11:35;17.40;44.70
1107;DHT22;540;49.448;8.612;2023-06-04T04:14:03;17.20;43.70
1107;DHT22;540;49.448;8.612;2023-06-04T04:16:31;17.50;43.10
1107;DHT22;540;49.448;8.612;2023-06-04T04:18:59;17.10;42.00
1107;DHT22;540;49.448;8.612;2023-06-04T04:21:27;17.40;42.60
1107;DHT22;540;49.448;8.612;2023-06-04T04:23:56;17.30;43.60
1107;DHT22;540;49.448;8.612;2023-06-04T04:26:24;17.40;44.10
1107;DHT22;540;49.448;8.612;2023-06-04T04:28:54;17.40;44.80
1107;DHT22;540;49.448;8.612;2023-06-04T04:31:25;17.30;44.80
1107;DHT22;540;49.448;8.612;2023-06-04T04:33:55;17.40;44.90
1107;DHT22;540;49.448;8.612;2023-06-04T04:36:23;17.10;44.80
1107;DHT22;540;49.448;8.612;2023-06-04T04:38:51;17.70;45.40
1107;DHT22;540;49.448;8.612;2023-06-04T04:41:23;17.50;45.30
1107;DHT22;540;49.448;8.612;2023-06-04T04:43:53;17.40;45.40
1107;DHT22;540;49.448;8.612;2023-06-04T04:46:21;17.50;45.30
1107;DHT22;540;49.448;8.612;2023-06-04T04:48:49;17.50;45.30
1107;DHT22;540;49.448;8.612;2023-06-04T04:51:17;17.50;45.70
1107;DHT22;540;49.448;8.612;2023-06-04T04:53:44;17.80;45.80
1107;DHT22;540;49.448;8.612;2023-06-04T04:56:13;17.30;45.30
1107;DHT22;540;49.448;8.612;2023-06-04T04:58:42;17.90;45.60
1107;DHT22;540;49.448;8.612;2023-06-04T05:01:09;17.50;45.50
1107;DHT22;540;49.448;8.612;2023-06-04T05:03:37;17.70;45.70
1107;DHT22;540;49.448;8.612;2023-06-04T05:06:05;18.00;45.50
1107;DHT22;540;49.448;8.612;2023-06-04T05:08:33;17.30;44.90
1107;DHT22;540;49.448;8.612;2023-06-04T05:11:01;18.00;45.20
1107;DHT22;540;49.448;8.612;2023-06-04T05:13:29;18.20;44.10
1107;DHT22;540;49.448;8.612;2023-06-04T05:15:58;19.00;42.80
1107;DHT22;540;49.448;8.612;2023-06-04T05:18:26;20.70;40.00
1107;DHT22;540;49.448;8.612;2023-06-04T05:20:57;22.30;36.50
1107;DHT22;540;49.448;8.612;2023-06-04T05:23:26;23.50;33.80
1107;DHT22;540;49.448;8.612;2023-06-04T05:25:54;24.30;32.20
1107;DHT22;540;49.448;8.612;2023-06-04T05:28:22;24.90;31.10
1107;DHT22;540;49.448;8.612;2023-06-04T05:30:51;25.40;30.40
1107;DHT22;540;49.448;8.612;2023-06-04T05:33:26;26.00;30.00
1107;DHT22;540;49.448;8.612;2023-06-04T05:35:54;26.30;28.70
1107;DHT22;540;49.448;8.612;2023-06-04T05:38:24;26.60;28.20
1107;DHT22;540;49.448;8.612;2023-06-04T05:40:53;27.20;27.90
1107;DHT22;540;49.448;8.612;2023-06-04T05:43:21;27.20;27.10
1107;DHT22;540;49.448;8.612;2023-06-04T05:45:50;27.40;26.70
1107;DHT22;540;49.448;8.612;2023-06-04T05:48:18;27.70;26.40
1107;DHT22;540;49.448;8.612;2023-06-04T05:50:47;28.10;26.20
1107;DHT22;540;49.448;8.612;2023-06-04T05:53:15;28.40;26.00
1107;DHT22;540;49.448;8.612;2023-06-04T05:55:43;27.20;27.30
1107;DHT22;540;49.448;8.612;2023-06-04T05:58:11;25.30;28.70
1107;DHT22;540;49.448;8.612;2023-06-04T06:00:39;23.90;30.10
1107;DHT22;540;49.448;8.612;2023-06-04T06:03:07;23.50;31.70
1107;DHT22;540;49.448;8.612;2023-06-04T06:05:37;25.20;30.30
1107;DHT22;540;49.448;8.612;2023-06-04T06:08:06;26.80;28.00
1107;DHT22;540;49.448;8.612;2023-06-04T06:10:34;27.80;26.20
1107;DHT22;540;49.448;8.612;2023-06-04T06:13:02;28.60;25.20
1107;DHT22;540;49.448;8.612;2023-06-04T06:15:30;29.10;24.50
1107;DHT22;540;49.448;8.612;2023-06-04T06:17:57;29.80;24.50
1107;DHT22;540;49.448;8.612;2023-06-04T06:20:25;30.70;24.00
1107;DHT22;540;49.448;8.612;2023-06-04T06:22:53;31.20;23.20
1107;DHT22;540;49.448;8.612;2023-06-04T06:25:22;31.30;23.20
1107;DHT22;540;49.448;8.612;2023-06-04T06:27:50;31.10;22.50
1107;DHT22;540;49.448;8.612;2023-06-04T06:30:18;31.10;22.80
1107;DHT22;540;49.448;8.612;2023-06-04T06:32:46;31.60;22.30
1107;DHT22;540;49.448;8.612;2023-06-04T06:35:15;31.60;21.90
1107;DHT22;540;49.448;8.612;2023-06-04T06:37:43;32.10;22.00
1107;DHT22;540;49.448;8.612;2023-06-04T06:40:11;32.30;21.20
1107;DHT22;540;49.448;8.612;2023-06-04T06:42:40;32.20;20.60
1107;DHT22;540;49.448;8.612;2023-06-04T06:45:09;32.00;20.90
1107;DHT22;540;49.448;8.612;2023-06-04T06:47:37;32.20;21.30
1107;DHT22;540;49.448;8.612;2023-06-04T06:50:06;32.20;20.90
1107;DHT22;540;49.448;8.612;2023-06-04T06:52:34;32.10;21.00
1107;DHT22;540;49.448;8.612;2023-06-04T06:55:02;32.40;20.90
1107;DHT22;540;49.448;8.612;2023-06-04T06:57:30;32.60;20.60
1107;DHT22;540;49.448;8.612;2023-06-04T07:00:00;33.00;20.60
1107;DHT22;540;49.448;8.612;2023-06-04T07:02:28;32.80;20.70
1107;DHT22;540;49.448;8.612;2023-06-04T07:04:56;33.00;21.00
1107;DHT22;540;49.448;8.612;2023-06-04T07:07:24;32.90;20.30
1107;DHT22;540;49.448;8.612;2023-06-04T07:09:53;33.20;20.20
1107;DHT22;540;49.448;8.612;2023-06-04T07:12:21;33.50;20.50
1107;DHT22;540;49.448;8.612;2023-06-04T07:14:50;33.90;20.20
1107;DHT22;540;49.448;8.612;2023-06-04T07:17:19;34.20;19.50
1107;DHT22;540;49.448;8.612;2023-06-04T07:19:48;34.00;19.50
1107;DHT22;540;49.448;8.612;2023-06-04T07:22:16;34.30;19.50
1107;DHT22;540;49.448;8.612;2023-06-04T07:24:44;34.30;19.30
1107;DHT22;540;49.448;8.612;2023-06-04T07:27:12;33.70;19.50
1107;DHT22;540;49.448;8.612;2023-06-04T07:29:43;34.10;19.30
1107;DHT22;540;49.448;8.612;2023-06-04T07:32:11;33.80;19.30
1107;DHT22;540;49.448;8.612;2023-06-04T07:34:41;34.20;19.30
1107;DHT22;540;49.448;8.612;2023-06-04T07:37:09;34.10;19.30
1107;DHT22;540;49.448;8.612;2023-06-04T07:39:38;34.40;19.40
1107;DHT22;540;49.448;8.612;2023-06-04T07:42:06;34.50;19.50
1107;DHT22;540;49.448;8.612;2023-06-04T07:44:36;34.40;18.90
1107;DHT22;540;49.448;8.612;2023-06-04T07:47:04;34.50;18.80
1107;DHT22;540;49.448;8.612;2023-06-04T07:49:32;34.70;18.80
1107;DHT22;540;49.448;8.612;2023-06-04T07:52:01;35.30;18.80
1107;DHT22;540;49.448;8.612;2023-06-04T07:54:29;35.00;19.10
1107;DHT22;540;49.448;8.612;2023-06-04T07:56:58;34.50;19.40
1107;DHT22;540;49.448;8.612;2023-06-04T07:59:25;34.70;19.50
1107;DHT22;540;49.448;8.612;2023-06-04T08:01:54;34.30;19.00
1107;DHT22;540;49.448;8.612;2023-06-04T08:04:23;34.80;19.20
1107;DHT22;540;49.448;8.612;2023-06-04T08:06:53;34.60;19.00
1107;DHT22;540;49.448;8.612;2023-06-04T08:09:25;34.80;19.00
1107;DHT22;540;49.448;8.612;2023-06-04T08:11:55;34.90;19.00
1107;DHT22;540;49.448;8.612;2023-06-04T08:14:24;34.80;18.90
1107;DHT22;540;49.448;8.612;2023-06-04T08:16:54;35.00;19.10
1107;DHT22;540;49.448;8.612;2023-06-04T08:19:24;35.20;19.20
1107;DHT22;540;49.448;8.612;2023-06-04T08:21:54;35.30;18.60
1107;DHT22;540;49.448;8.612;2023-06-04T08:24:25;35.30;18.70
1107;DHT22;540;49.448;8.612;2023-06-04T08:26:55;35.40;18.80
1107;DHT22;540;49.448;8.612;2023-06-04T08:29:24;35.70;18.40
1107;DHT22;540;49.448;8.612;2023-06-04T08:31:55;35.70;18.30
1107;DHT22;540;49.448;8.612;2023-06-04T08:34:24;35.70;18.20
1107;DHT22;540;49.448;8.612;2023-06-04T08:36:54;35.70;18.40
1107;DHT22;540;49.448;8.612;2023-06-04T08:39:26;35.80;18.40
1107;DHT22;540;49.448;8.612;2023-06-04T08:42:00;35.70;18.70
1107;DHT22;540;49.448;8.612;2023-06-04T08:44:30;35.70;18.80
1107;DHT22;540;49.448;8.612;2023-06-04T08:47:03;35.60;18.80
1107;DHT22;540;49.448;8.612;2023-06-04T08:49:35;35.80;18.70
1107;DHT22;540;49.448;8.612;2023-06-04T08:52:05;35.80;18.40
1107;DHT22;540;49.448;8.612;2023-06-04T08:54:37;35.70;18.40
1107;DHT22;540;49.448;8.612;2023-06-04T08:57:07;35.80;18.80
1107;DHT22;540;49.448;8.612;2023-06-04T08:59:37;35.70;18.70
1107;DHT22;540;49.448;8.612;2023-06-04T09:02:06;35.90;18.60
1107;DHT22;540;49.448;8.612;2023-06-04T09:04:34;35.60;17.90
1107;DHT22;540;49.448;8.612;2023-06-04T09:07:03;35.30;17.80
1107;DHT22;540;49.448;8.612;2023-06-04T09:09:39;35.80;17.70
1107;DHT22;540;49.448;8.612;2023-06-04T09:12:10;35.90;16.60
1107;DHT22;540;49.448;8.612;2023-06-04T09:14:39;35.70;17.10
1107;DHT22;540;49.448;8.612;2023-06-04T09:17:07;34.80;17.20
1107;DHT22;540;49.448;8.612;2023-06-04T09:19:34;34.70;17.20
1107;DHT22;540;49.448;8.612;2023-06-04T09:22:02;35.00;16.60
1107;DHT22;540;49.448;8.612;2023-06-04T09:24:42;35.40;16.50
1107;DHT22;540;49.448;8.612;2023-06-04T09:27:13;34.20;18.40
1107;DHT22;540;49.448;8.612;2023-06-04T09:29:49;33.80;18.10
1107;DHT22;540;49.448;8.612;2023-06-04T09:32:21;33.70;17.50
1107;DHT22;540;49.448;8.612;2023-06-04T09:34:49;33.70;18.50
1107;DHT22;540;49.448;8.612;2023-06-04T09:37:19;33.30;18.70
1107;DHT22;540;49.448;8.612;2023-06-04T09:39:54;32.60;19.60
1107;DHT22;540;49.448;8.612;2023-06-04T09:42:22;33.20;18.90
1107;DHT22;540;49.448;8.612;2023-06-04T09:44:51;33.50;18.60
1107;DHT22;540;49.448;8.612;2023-06-04T09:47:19;31.70;18.30
1107;DHT22;540;49.448;8.612;2023-06-04T09:49:48;30.60;19.60
1107;DHT22;540;49.448;8.612;2023-06-04T09:52:17;30.00;20.70
1107;DHT22;540;49.448;8.612;2023-06-04T09:54:47;30.20;20.90
1107;DHT22;540;49.448;8.612;2023-06-04T09:57:17;30.30;20.50
1107;DHT22;540;49.448;8.612;2023-06-04T09:59:48;30.80;19.90
1107;DHT22;540;49.448;8.612;2023-06-04T10:02:19;30.60;20.10
1107;DHT22;540;49.448;8.612;2023-06-04T10:04:49;29.90;20.90
1107;DHT22;540;49.448;8.612;2023-06-04T10:07:19;29.60;21.40
1107;DHT22;540;49.448;8.612;2023-06-04T10:09:48;30.30;21.60
1107;DHT22;540;49.448;8.612;2023-06-04T10:12:23;30.80;21.70
1107;DHT22;540;49.448;8.612;2023-06-04T10:14:56;31.10;20.30
1107;DHT22;540;49.448;8.612;2023-06-04T10:17:25;31.40;20.00
1107;DHT22;540;49.448;8.612;2023-06-04T10:19:55;32.20;19.30
1107;DHT22;540;49.448;8.612;2023-06-04T10:22:24;32.80;19.10
1107;DHT22;540;49.448;8.612;2023-06-04T10:24:52;33.00;19.50
1107;DHT22;540;49.448;8.612;2023-06-04T10:27:23;33.20;19.00
1107;DHT22;540;49.448;8.612;2023-06-04T10:29:52;33.20;19.10
1107;DHT22;540;49.448;8.612;2023-06-04T10:32:20;33.10;19.10
1107;DHT22;540;49.448;8.612;2023-06-04T10:34:48;33.40;19.10
1107;DHT22;540;49.448;8.612;2023-06-04T10:37:20;33.10;18.40
1107;DHT22;540;49.448;8.612;2023-06-04T10:39:51;33.00;18.80
1107;DHT22;540;49.448;8.612;2023-06-04T10:42:21;32.70;18.70
1107;DHT22;540;49.448;8.612;2023-06-04T10:44:50;31.90;19.90
1107;DHT22;540;49.448;8.612;2023-06-04T10:47:23;31.20;20.10
1107;DHT22;540;49.448;8.612;2023-06-04T10:49:52;31.00;20.50
1107;DHT22;540;49.448;8.612;2023-06-04T10:52:21;31.20;20.40
1107;DHT22;540;49.448;8.612;2023-06-04T10:54:49;31.30;20.70
1107;DHT22;540;49.448;8.612;2023-06-04T10:57:21;31.10;20.60
1107;DHT22;540;49.448;8.612;2023-06-04T10:59:55;31.50;20.20
1107;DHT22;540;49.448;8.612;2023-06-04T11:02:23;31.50;20.20
1107;DHT22;540;49.448;8.612;2023-06-04T11:05:02;31.80;19.90
1107;DHT22;540;49.448;8.612;2023-06-04T11:07:42;32.20;20.00
1107;DHT22;540;49.448;8.612;2023-06-04T11:10:12;32.40;19.40
1107;DHT22;540;49.448;8.612;2023-06-04T11:12:46;32.30;19.20
1107;DHT22;540;49.448;8.612;2023-06-04T11:15:16;32.30;19.80
1107;DHT22;540;49.448;8.612;2023-06-04T11:17:51;31.70;19.40
1107;DHT22;540;49.448;8.612;2023-06-04T11:20:21;31.30;20.50
1107;DHT22;540;49.448;8.612;2023-06-04T11:22:56;31.50;21.20
1107;DHT22;540;49.448;8.612;2023-06-04T11:25:25;31.60;20.30
1107;DHT22;540;49.448;8.612;2023-06-04T11:27:55;31.80;19.80
1107;DHT22;540;49.448;8.612;2023-06-04T11:30:24;31.80;19.20
1107;DHT22;540;49.448;8.612;2023-06-04T11:33:00;31.70;19.10
1107;DHT22;540;49.448;8.612;2023-06-04T11:35:29;31.60;19.80
1107;DHT22;540;49.448;8.612;2023-06-04T11:37:58;31.40;20.10
1107;DHT22;540;49.448;8.612;2023-06-04T11:40:26;31.50;20.60
1107;DHT22;540;49.448;8.612;2023-06-04T11:42:56;31.40;20.10
1107;DHT22;540;49.448;8.612;2023-06-04T11:45:24;31.30;20.10
1107;DHT22;540;49.448;8.612;2023-06-04T11:47:53;31.30;20.10
1107;DHT22;540;49.448;8.612;2023-06-04T11:50:25;31.00;19.80
1107;DHT22;540;49.448;8.612;2023-06-04T11:52:53;30.80;20.30
1107;DHT22;540;49.448;8.612;2023-06-04T11:55:22;30.60;21.20
1107;DHT22;540;49.448;8.612;2023-06-04T11:57:51;30.80;22.20
1107;DHT22;540;49.448;8.612;2023-06-04T12:00:20;30.70;22.40
1107;DHT22;540;49.448;8.612;2023-06-04T12:02:50;30.40;21.40
1107;DHT22;540;49.448;8.612;2023-06-04T12:05:21;30.30;21.50
1107;DHT22;540;49.448;8.612;2023-06-04T12:07:50;30.30;22.40
1107;DHT22;540;49.448;8.612;2023-06-04T12:10:19;30.40;22.40
1107;DHT22;540;49.448;8.612;2023-06-04T12:12:53;30.50;21.40
1107;DHT22;540;49.448;8.612;2023-06-04T12:15:23;30.80;20.80
1107;DHT22;540;49.448;8.612;2023-06-04T12:17:52;30.80;21.10
1107;DHT22;540;49.448;8.612;2023-06-04T12:20:32;31.00;21.10
1107;DHT22;540;49.448;8.612;2023-06-04T12:23:01;30.70;21.80
1107;DHT22;540;49.448;8.612;2023-06-04T12:25:29;30.60;22.70
1107;DHT22;540;49.448;8.612;2023-06-04T12:27:58;30.30;22.00
1107;DHT22;540;49.448;8.612;2023-06-04T12:30:36;29.90;21.90
1107;DHT22;540;49.448;8.612;2023-06-04T12:33:04;29.80;22.60
1107;DHT22;540;49.448;8.612;2023-06-04T12:35:33;29.60;22.50
1107;DHT22;540;49.448;8.612;2023-06-04T12:38:02;29.70;22.40
1107;DHT22;540;49.448;8.612;2023-06-04T12:40:31;29.90;22.60
1107;DHT22;540;49.448;8.612;2023-06-04T12:42:58;29.80;21.70
1107;DHT22;540;49.448;8.612;2023-06-04T12:45:26;29.90;21.90
1107;DHT22;540;49.448;8.612;2023-06-04T12:47:56;29.80;21.90
1107;DHT22;540;49.448;8.612;2023-06-04T12:50:24;29.70;22.50
1107;DHT22;540;49.448;8.612;2023-06-04T12:52:51;29.60;22.40
1107;DHT22;540;49.448;8.612;2023-06-04T12:55:19;29.70;22.90
1107;DHT22;540;49.448;8.612;2023-06-04T12:57:47;29.60;23.60
1107;DHT22;540;49.448;8.612;2023-06-04T13:00:15;29.40;23.70
1107;DHT22;540;49.448;8.612;2023-06-04T13:02:43;29.10;23.10
1107;DHT22;540;49.448;8.612;2023-06-04T13:05:13;29.00;23.10
1107;DHT22;540;49.448;8.612;2023-06-04T13:07:41;28.70;22.80
1107;DHT22;540;49.448;8.612;2023-06-04T13:10:09;29.00;23.00
1107;DHT22;540;49.448;8.612;2023-06-04T13:12:37;29.20;22.90
1107;DHT22;540;49.448;8.612;2023-06-04T13:15:05;29.10;23.60
1107;DHT22;540;49.448;8.612;2023-06-04T13:17:33;28.90;23.50
1107;DHT22;540;49.448;8.612;2023-06-04T13:20:01;28.70;23.70
1107;DHT22;540;49.448;8.612;2023-06-04T13:22:31;28.50;24.00
1107;DHT22;540;49.448;8.612;2023-06-04T13:24:59;28.60;23.90
1107;DHT22;540;49.448;8.612;2023-06-04T13:27:27;28.70;23.10
1107;DHT22;540;49.448;8.612;2023-06-04T13:29:55;28.80;23.40
1107;DHT22;540;49.448;8.612;2023-06-04T13:32:23;28.80;23.10
1107;DHT22;540;49.448;8.612;2023-06-04T13:34:51;28.80;23.20
1107;DHT22;540;49.448;8.612;2023-06-04T13:37:19;28.90;23.10
1107;DHT22;540;49.448;8.612;2023-06-04T13:39:48;28.70;23.60
1107;DHT22;540;49.448;8.612;2023-06-04T13:42:15;28.60;22.90
1107;DHT22;540;49.448;8.612;2023-06-04T13:44:43;28.60;22.90
1107;DHT22;540;49.448;8.612;2023-06-04T13:47:11;28.50;22.70
1107;DHT22;540;49.448;8.612;2023-06-04T13:49:39;28.70;22.70
1107;DHT22;540;49.448;8.612;2023-06-04T13:52:07;28.80;22.50
1107;DHT22;540;49.448;8.612;2023-06-04T13:54:35;28.90;22.50
1107;DHT22;540;49.448;8.612;2023-06-04T13:57:06;28.90;22.60
1107;DHT22;540;49.448;8.612;2023-06-04T13:59:37;28.90;22.90
1107;DHT22;540;49.448;8.612;2023-06-04T14:02:06;28.90;21.60
1107;DHT22;540;49.448;8.612;2023-06-04T14:04:34;29.00;21.60
1107;DHT22;540;49.448;8.612;2023-06-04T14:07:02;28.90;21.10
1107;DHT22;540;49.448;8.612;2023-06-04T14:09:30;29.20;21.10
1107;DHT22;540;49.448;8.612;2023-06-04T14:11:58;29.40;22.00
1107;DHT22;540;49.448;8.612;2023-06-04T14:14:27;29.10;21.60
1107;DHT22;540;49.448;8.612;2023-06-04T14:16:57;28.90;21.20
1107;DHT22;540;49.448;8.612;2023-06-04T14:19:25;29.00;21.70
1107;DHT22;540;49.448;8.612;2023-06-04T14:21:53;28.90;22.00
1107;DHT22;540;49.448;8.612;2023-06-04T14:24:21;28.90;21.60
1107;DHT22;540;49.448;8.612;2023-06-04T14:26:49;28.90;21.80
1107;DHT22;540;49.448;8.612;2023-06-04T14:29:17;28.70;22.10
1107;DHT22;540;49.448;8.612;2023-06-04T14:31:47;28.60;22.00
1107;DHT22;540;49.448;8.612;2023-06-04T14:34:15;28.80;22.10
1107;DHT22;540;49.448;8.612;2023-06-04T14:36:43;28.90;22.30
1107;DHT22;540;49.448;8.612;2023-06-04T14:39:11;28.50;22.00
1107;DHT22;540;49.448;8.612;2023-06-04T14:41:39;28.50;22.00
1107;DHT22;540;49.448;8.612;2023-06-04T14:44:07;28.60;21.60
1107;DHT22;540;49.448;8.612;2023-06-04T14:46:35;28.70;22.60
1107;DHT22;540;49.448;8.612;2023-06-04T14:49:04;28.50;22.50
1107;DHT22;540;49.448;8.612;2023-06-04T14:51:31;28.50;22.00
1107;DHT22;540;49.448;8.612;2023-06-04T14:53:59;28.40;22.60
1107;DHT22;540;49.448;8.612;2023-06-04T14:56:27;28.30;22.50
1107;DHT22;540;49.448;8.612;2023-06-04T14:58:56;28.10;21.90
1107;DHT22;540;49.448;8.612;2023-06-04T15:01:24;28.20;22.20
1107;DHT22;540;49.448;8.612;2023-06-04T15:03:52;28.10;22.40
1107;DHT22;540;49.448;8.612;2023-06-04T15:06:21;28.10;22.10
1107;DHT22;540;49.448;8.612;2023-06-04T15:08:49;28.20;22.80
1107;DHT22;540;49.448;8.612;2023-06-04T15:11:17;28.20;22.70
1107;DHT22;540;49.448;8.612;2023-06-04T15:13:45;28.20;22.00
1107;DHT22;540;49.448;8.612;2023-06-04T15:16:13;28.20;21.90
1107;DHT22;540;49.448;8.612;2023-06-04T15:18:40;28.00;22.10
1107;DHT22;540;49.448;8.612;2023-06-04T15:21:09;28.00;22.10
1107;DHT22;540;49.448;8.612;2023-06-04T15:23:38;28.10;22.40
1107;DHT22;540;49.448;8.612;2023-06-04T15:26:06;28.00;21.90
1107;DHT22;540;49.448;8.612;2023-06-04T15:28:34;27.90;22.30
1107;DHT22;540;49.448;8.612;2023-06-04T15:31:02;27.90;23.20
1107;DHT22;540;49.448;8.612;2023-06-04T15:33:29;27.90;22.90
1107;DHT22;540;49.448;8.612;2023-06-04T15:35:57;27.80;22.70
1107;DHT22;540;49.448;8.612;2023-06-04T15:38:25;27.70;22.30
1107;DHT22;540;49.448;8.612;2023-06-04T15:40:57;27.60;22.20
1107;DHT22;540;49.448;8.612;2023-06-04T15:43:24;27.70;22.20
1107;DHT22;540;49.448;8.612;2023-06-04T15:45:52;27.80;22.20
1107;DHT22;540;49.448;8.612;2023-06-04T15:48:21;27.70;23.20
1107;DHT22;540;49.448;8.612;2023-06-04T15:50:49;27.70;23.40
1107;DHT22;540;49.448;8.612;2023-06-04T15:53:17;27.50;23.50
1107;DHT22;540;49.448;8.612;2023-06-04T15:55:45;27.40;23.20
1107;DHT22;540;49.448;8.612;2023-06-04T15:58:14;27.20;22.70
1107;DHT22;540;49.448;8.612;2023-06-04T16:00:42;27.20;22.60
1107;DHT22;540;49.448;8.612;2023-06-04T16:03:10;27.30;22.00
1107;DHT22;540;49.448;8.612;2023-06-04T16:05:38;27.30;22.00
1107;DHT22;540;49.448;8.612;2023-06-04T16:08:06;27.20;22.60
1107;DHT22;540;49.448;8.612;2023-06-04T16:10:33;27.20;22.50
1107;DHT22;540;49.448;8.612;2023-06-04T16:13:01;27.20;22.30
1107;DHT22;540;49.448;8.612;2023-06-04T16:15:30;27.30;23.10
1107;DHT22;540;49.448;8.612;2023-06-04T16:17:58;27.30;22.80
1107;DHT22;540;49.448;8.612;2023-06-04T16:20:26;27.30;22.10
1107;DHT22;540;49.448;8.612;2023-06-04T16:22:54;27.10;21.60
1107;DHT22;540;49.448;8.612;2023-06-04T16:25:22;27.20;21.70
1107;DHT22;540;49.448;8.612;2023-06-04T16:27:50;27.10;23.00